createdAt,value
2019-05-03T00:02:37.440Z,99135.55
2019-05-03T00:05:22.319Z,99133.82
2019-05-03T00:08:02.159Z,99138.19
2019-05-03T00:10:38.149Z,99137.77
2019-05-03T00:13:12.522Z,99138.33
2019-05-03T00:16:00.156Z,99141.41
2019-05-03T00:18:32.924Z,99141.48
2019-05-03T00:21:06.074Z,99144.92
2019-05-03T00:23:39.042Z,99148.55
2019-05-03T00:26:12.245Z,99141.48
2019-05-03T00:28:45.737Z,99146.22
2019-05-03T00:31:18.612Z,99143.88
2019-05-03T00:33:55.717Z,99147.34
2019-05-03T00:36:35.357Z,99153.83
2019-05-03T00:39:22.968Z,99144.08
2019-05-03T00:41:56.009Z,99145.23
2019-05-03T00:44:29.359Z,99141.80
2019-05-03T00:47:02.379Z,99147.01
2019-05-03T00:49:36.203Z,99134.61
2019-05-03T00:52:11.647Z,99133.48
2019-05-03T00:54:45.179Z,99133.06
2019-05-03T00:57:18.520Z,99144.84
2019-05-03T00:59:52.812Z,99140.87
2019-05-03T01:02:26.359Z,99155.97
2019-05-03T01:04:59.900Z,99157.61
2019-05-03T01:07:33.211Z,99163.58
2019-05-03T01:10:08.981Z,99162.52
2019-05-03T01:12:41.729Z,99162.27
2019-05-03T01:15:23.226Z,99161.78
2019-05-03T01:17:56.749Z,99157.89
2019-05-03T01:20:29.627Z,99160.69
2019-05-03T01:23:03.186Z,99160.12
2019-05-03T01:25:36.192Z,99161.31
2019-05-03T01:28:09.233Z,99161.88
2019-05-03T01:30:43.088Z,99164.07
2019-05-03T01:33:16.405Z,99163.91
2019-05-03T01:35:51.891Z,99162.84
2019-05-03T01:38:25.123Z,99162.41
2019-05-03T01:40:58.442Z,99163.17
2019-05-03T01:43:31.903Z,99163.22
2019-05-03T01:46:04.611Z,99174.68
2019-05-03T01:48:52.202Z,99171.55
2019-05-03T01:51:33.625Z,99179.80
2019-05-03T01:54:07.124Z,99184.41
2019-05-03T01:56:43.299Z,99180.00
2019-05-03T01:59:14.944Z,99180.28
2019-05-03T02:02:16.921Z,99187.63
2019-05-03T02:04:57.332Z,99188.77
2019-05-03T02:07:31.648Z,99192.45
2019-05-03T02:10:05.197Z,99188.64
2019-05-03T02:12:38.812Z,99192.38
2019-05-03T02:15:12.498Z,99196.62
2019-05-03T02:17:45.605Z,99196.27
2019-05-03T02:20:18.255Z,99195.20
2019-05-03T02:22:52.207Z,99201.86
2019-05-03T02:25:25.057Z,99201.20
2019-05-03T02:27:59.607Z,99195.80
2019-05-03T02:30:34.209Z,99201.55
2019-05-03T02:33:07.301Z,99199.64
2019-05-03T02:35:42.726Z,99198.89
2019-05-03T02:38:15.628Z,99201.03
2019-05-03T02:40:48.640Z,99209.53
2019-05-03T02:43:49.653Z,99205.60
2019-05-03T02:46:45.525Z,99201.70
2019-05-03T02:49:26.133Z,99206.67
2019-05-03T02:51:59.508Z,99212.78
2019-05-03T02:54:35.283Z,99218.38
2019-05-03T02:57:08.416Z,99213.42
2019-05-03T02:59:41.999Z,99217.91
2019-05-03T03:02:15.661Z,99213.78
2019-05-03T03:04:49.002Z,99214.34
2019-05-03T03:07:25.638Z,99215.28
2019-05-03T03:09:59.351Z,99220.77
2019-05-03T03:12:35.542Z,99217.11
2019-05-03T03:15:09.930Z,99218.97
2019-05-03T03:17:45.755Z,99224.50
2019-05-03T03:20:19.524Z,99229.81
2019-05-03T03:22:55.895Z,99221.72
2019-05-03T03:25:36.201Z,99227.67
2019-05-03T03:28:12.187Z,99226.64
2019-05-03T03:31:21.361Z,99231.44
2019-05-03T03:33:59.019Z,99226.36
2019-05-03T03:36:54.447Z,99229.26
2019-05-03T03:39:11.684Z,99227.86
2019-05-03T03:41:46.689Z,99220.48
2019-05-03T03:44:21.027Z,99227.51
2019-05-03T03:46:56.173Z,99230.81
2019-05-03T03:49:30.917Z,99235.09
2019-05-03T03:52:06.178Z,99237.98
2019-05-03T03:54:41.711Z,99245.87
2019-05-03T03:57:16.177Z,99251.36
2019-05-03T03:59:49.687Z,99252.44
2019-05-03T04:02:22.600Z,99258.72
2019-05-03T04:04:56.237Z,99258.88
2019-05-03T04:07:29.183Z,99261.25
2019-05-03T04:10:05.531Z,99265.02
2019-05-03T04:12:38.124Z,99270.34
2019-05-03T04:15:40.090Z,99268.77
2019-05-03T04:18:21.161Z,99273.48
2019-05-03T04:20:55.988Z,99279.80
2019-05-03T04:23:31.378Z,99283.36
2019-05-03T04:26:07.071Z,99288.70
2019-05-03T04:28:41.554Z,99295.37
2019-05-03T04:31:15.442Z,99298.51
2019-05-03T04:33:49.463Z,99298.92
2019-05-03T04:36:22.458Z,99305.89
2019-05-03T04:38:56.467Z,99306.86
2019-05-03T04:41:30.170Z,99308.91
2019-05-03T04:44:06.386Z,99310.98
2019-05-03T04:46:38.304Z,99321.11
2019-05-03T04:49:10.951Z,99319.06
2019-05-03T04:51:46.566Z,99320.32
2019-05-03T04:54:45.188Z,99316.96
2019-05-03T04:57:35.062Z,99319.48
2019-05-03T04:59:55.999Z,99327.27
2019-05-03T05:02:29.323Z,99322.43
2019-05-03T05:05:02.267Z,99326.30
2019-05-03T05:07:37.246Z,99329.05
2019-05-03T05:10:10.862Z,99336.88
2019-05-03T05:12:45.767Z,99332.30
2019-05-03T05:15:18.803Z,99340.41
2019-05-03T05:18:02.141Z,99341.39
2019-05-03T05:20:48.757Z,99336.71
2019-05-03T05:23:24.957Z,99341.19
2019-05-03T05:26:10.810Z,99346.35
2019-05-03T05:28:51.980Z,99346.74
2019-05-03T05:31:25.711Z,99353.78
2019-05-03T05:33:58.849Z,99356.55
2019-05-03T05:36:34.758Z,99357.62
2019-05-03T05:39:08.439Z,99358.23
2019-05-03T05:41:41.097Z,99361.09
2019-05-03T05:44:14.916Z,99369.84
2019-05-03T05:47:07.147Z,99364.25
2019-05-03T05:49:54.585Z,99366.66
2019-05-03T05:52:28.187Z,99363.66
2019-05-03T05:55:25.301Z,99369.68
2019-05-03T05:58:07.520Z,99368.63
2019-05-03T06:00:47.907Z,99372.38
2019-05-03T06:03:22.610Z,99362.22
2019-05-03T06:05:58.254Z,99371.36
2019-05-03T06:08:44.771Z,99376.26
2019-05-03T06:11:44.923Z,99377.06
2019-05-03T06:14:24.631Z,99371.53
2019-05-03T06:17:14.635Z,99384.25
2019-05-03T06:20:05.769Z,99385.80
2019-05-03T06:22:44.820Z,99380.48
2019-05-03T06:25:26.460Z,99383.78
2019-05-03T06:28:01.275Z,99387.16
2019-05-03T06:30:45.443Z,99387.41
2019-05-03T06:33:19.316Z,99387.19
2019-05-03T06:35:52.248Z,99396.67
2019-05-03T06:38:25.767Z,99394.70
2019-05-03T06:40:59.262Z,99389.30
2019-05-03T06:43:32.247Z,99389.53
2019-05-03T06:46:05.421Z,99386.91
2019-05-03T06:48:39.192Z,99391.86
2019-05-03T06:51:19.247Z,99388.27
2019-05-03T06:53:50.623Z,99389.95
2019-05-03T06:56:28.983Z,99387.92
2019-05-03T06:58:59.288Z,99385.09
2019-05-03T07:01:40.698Z,99386.47
2019-05-03T07:04:24.577Z,99392.42
2019-05-03T07:07:07.769Z,99393.30
2019-05-03T07:10:06.193Z,99389.28
2019-05-03T07:12:56.995Z,99389.64
2019-05-03T07:15:31.096Z,99392.73
2019-05-03T07:18:05.790Z,99394.05
2019-05-03T07:20:50.249Z,99387.92
2019-05-03T07:23:24.463Z,99395.12
2019-05-03T07:25:58.432Z,99392.58
2019-05-03T07:28:44.396Z,99397.91
2019-05-03T07:31:07.399Z,99393.66
2019-05-03T07:33:42.011Z,99399.20
2019-05-03T07:36:15.529Z,99399.20
2019-05-03T07:38:48.828Z,99393.09
2019-05-03T07:41:25.074Z,99392.93
2019-05-03T07:43:58.873Z,99389.28
2019-05-03T07:46:34.894Z,99388.34
2019-05-03T07:49:08.048Z,99394.29
2019-05-03T07:51:41.164Z,99397.95
2019-05-03T07:54:15.700Z,99396.52
2019-05-03T07:56:54.914Z,99393.85
2019-05-03T07:59:28.685Z,99389.26
2019-05-03T08:02:01.703Z,99378.13
2019-05-03T08:04:35.838Z,99381.84
2019-05-03T08:07:19.940Z,99381.36
2019-05-03T08:09:45.326Z,99387.81
2019-05-03T08:12:18.006Z,99389.27
2019-05-03T08:14:50.698Z,99384.48
2019-05-03T08:17:25.358Z,99384.31
2019-05-03T08:19:58.163Z,99385.64
2019-05-03T08:22:34.411Z,99386.91
2019-05-03T08:25:07.087Z,99389.53
2019-05-03T08:27:40.482Z,99390.31
2019-05-03T08:30:17.120Z,99387.62
2019-05-03T08:33:21.483Z,99392.28
2019-05-03T08:35:55.599Z,99394.47
2019-05-03T08:38:29.002Z,99384.61
2019-05-03T08:41:05.289Z,99383.67
2019-05-03T08:43:38.381Z,99384.73
2019-05-03T08:46:11.731Z,99384.09
2019-05-03T08:48:45.604Z,99390.87
2019-05-03T08:51:18.999Z,99387.58
2019-05-03T08:53:51.339Z,99398.27
2019-05-03T08:56:24.755Z,99394.25
2019-05-03T08:59:26.763Z,99390.87
2019-05-03T09:02:14.142Z,99391.16
2019-05-03T09:04:42.895Z,99397.44
2019-05-03T09:07:14.787Z,99377.00
2019-05-03T09:10:06.182Z,99383.36
2019-05-03T09:12:58.055Z,99384.88
2019-05-03T09:15:31.516Z,99379.28
2019-05-03T09:18:04.934Z,99385.16
2019-05-03T09:20:37.996Z,99381.14
2019-05-03T09:23:11.508Z,99386.19
2019-05-03T09:25:45.808Z,99375.34
2019-05-03T09:28:19.153Z,99381.12
2019-05-03T09:30:52.190Z,99376.83
2019-05-03T09:33:25.036Z,99381.89
2019-05-03T09:35:58.553Z,99376.45
2019-05-03T09:38:31.550Z,99378.77
2019-05-03T09:41:05.197Z,99381.05
2019-05-03T09:43:38.375Z,99373.66
2019-05-03T09:46:14.387Z,99376.26
2019-05-03T09:48:47.186Z,99381.99
2019-05-03T09:51:20.704Z,99375.67
2019-05-03T09:53:58.910Z,99379.73
2019-05-03T09:56:57.522Z,99386.89
2019-05-03T09:59:27.205Z,99387.74
2019-05-03T10:02:01.926Z,99383.20
2019-05-03T10:04:36.691Z,99384.21
2019-05-03T10:07:09.697Z,99385.36
2019-05-03T10:09:44.939Z,99383.33
2019-05-03T10:12:19.944Z,99379.19
2019-05-03T10:14:54.849Z,99388.30
2019-05-03T10:17:55.318Z,99387.68
2019-05-03T10:20:28.544Z,99379.30
2019-05-03T10:23:10.795Z,99383.39
2019-05-03T10:25:45.568Z,99382.31
2019-05-03T10:28:19.514Z,99373.55
2019-05-03T10:30:54.753Z,99374.28
2019-05-03T10:33:31.534Z,99378.34
2019-05-03T10:36:05.536Z,99373.73
2019-05-03T10:38:39.066Z,99364.51
2019-05-03T10:41:12.666Z,99359.87
2019-05-03T10:43:46.431Z,99353.61
2019-05-03T10:46:20.053Z,99358.88
2019-05-03T10:48:55.615Z,99353.31
2019-05-03T10:51:32.616Z,99351.51
2019-05-03T10:54:06.316Z,99354.80
2019-05-03T10:56:55.456Z,99353.64
2019-05-03T10:59:29.372Z,99354.22
2019-05-03T11:02:25.307Z,99358.47
2019-05-03T11:04:59.123Z,99353.66
2019-05-03T11:07:34.459Z,99360.25
2019-05-03T11:10:10.339Z,99355.38
2019-05-03T11:12:43.565Z,99359.09
2019-05-03T11:15:16.273Z,99356.23
2019-05-03T11:17:50.089Z,99358.13
2019-05-03T11:20:36.195Z,99355.41
2019-05-03T11:23:10.198Z,99354.25
2019-05-03T11:25:45.233Z,99361.05
2019-05-03T11:28:24.947Z,99357.77
2019-05-03T11:31:09.627Z,99352.05
2019-05-03T11:33:42.719Z,99350.75
2019-05-03T11:36:19.891Z,99345.39
2019-05-03T11:38:52.768Z,99335.77
2019-05-03T11:41:32.004Z,99334.12
2019-05-03T11:44:20.301Z,99326.42
2019-05-03T11:46:55.124Z,99327.10
2019-05-03T11:49:28.679Z,99330.47
2019-05-03T11:52:02.488Z,99332.94
2019-05-03T11:54:36.056Z,99335.66
2019-05-03T11:57:15.873Z,99335.52
2019-05-03T11:59:49.178Z,99343.23
2019-05-03T12:02:46.714Z,99338.47
2019-05-03T12:05:25.555Z,99343.50
2019-05-03T12:08:01.201Z,99346.06
2019-05-03T12:10:49.830Z,99334.37
2019-05-03T12:13:25.702Z,99339.23
2019-05-03T12:15:59.941Z,99336.91
2019-05-03T12:18:47.817Z,99333.80
2019-05-03T12:21:09.735Z,99336.69
2019-05-03T12:23:43.306Z,99334.08
2019-05-03T12:26:18.656Z,99331.16
2019-05-03T12:28:52.012Z,99328.27
2019-05-03T12:31:36.314Z,99325.66
2019-05-03T12:33:59.693Z,99326.89
2019-05-03T12:36:38.841Z,99323.67
2019-05-03T12:39:23.194Z,99325.35
2019-05-03T12:41:43.422Z,99319.15
2019-05-03T12:44:16.616Z,99315.26
2019-05-03T12:46:49.702Z,99313.28
2019-05-03T12:49:24.958Z,99315.63
2019-05-03T12:51:58.014Z,99311.51
2019-05-03T12:54:31.114Z,99316.27
2019-05-03T12:57:05.296Z,99310.47
2019-05-03T12:59:58.302Z,99311.72
2019-05-03T13:02:36.245Z,99309.77
2019-05-03T13:05:09.379Z,99306.66
2019-05-03T13:08:07.370Z,99303.76
2019-05-03T13:10:40.541Z,99307.06
2019-05-03T13:13:14.658Z,99300.28
2019-05-03T13:15:48.160Z,99294.63
2019-05-03T13:18:21.568Z,99295.78
2019-05-03T13:20:55.842Z,99293.45
2019-05-03T23:24:50.739Z,99094.61
2019-05-03T23:27:25.054Z,99100.39
2019-05-03T23:29:58.699Z,99096.35
2019-05-03T23:32:32.421Z,99102.41
2019-05-03T23:35:05.683Z,99109.53
2019-05-03T23:37:39.815Z,99103.83
2019-05-03T23:40:14.727Z,99105.78
2019-05-03T23:42:47.835Z,99112.62
2019-05-03T23:45:20.797Z,99106.52
2019-05-03T23:47:53.722Z,99102.63
2019-05-03T23:50:26.995Z,99110.28
2019-05-03T23:53:00.094Z,99098.67
2019-05-03T23:55:49.841Z,99095.39
2019-05-03T23:58:24.570Z,99101.94
